Time,TemperatureF,DewpointF,PressureIn,WindDirection,WindDirectionDegrees,WindSpeedMPH,WindSpeedGustMPH,Humidity,HourlyPrecipIn,Conditions,Clouds,dailyrainin,SoftwareType,DateUTC
2013-01-30 00:00:00,-3.0,-20.0,-100.00,ENE,60,2.0,8.0,44,0.00,,,0.00,,2013-01-30 09:00:00,
2013-01-30 00:32:00,-3.0,-20.0,-100.00,ENE,60,2.0,8.0,44,0.00,,,0.00,,2013-01-30 09:32:00,
2013-01-30 00:42:00,-3.0,-20.0,-100.00,ENE,60,2.0,8.0,44,0.00,,,0.00,,2013-01-30 09:42:00,
2013-01-30 00:52:00,-3.0,-20.0,-100.00,ENE,60,2.0,8.0,44,0.00,,,0.00,,2013-01-30 09:52:00,
2013-01-30 01:00:00,-2.0,-17.0,-100.00,ENE,62,4.0,8.0,48,0.00,,,0.00,,2013-01-30 10:00:00,
2013-01-30 01:32:00,-2.0,-17.0,-100.00,ENE,62,4.0,8.0,48,0.00,,,0.00,,2013-01-30 10:32:00,
2013-01-30 01:42:00,-2.0,-17.0,-100.00,ENE,62,4.0,8.0,48,0.00,,,0.00,,2013-01-30 10:42:00,
2013-01-30 01:52:00,-2.0,-17.0,-100.00,ENE,62,4.0,8.0,48,0.00,,,0.00,,2013-01-30 10:52:00,
2013-01-30 02:00:00,-5.0,-16.0,-100.00,East,98,1.0,9.0,59,0.00,,,0.00,,2013-01-30 11:00:00,
2013-01-30 02:33:00,-5.0,-16.0,-100.00,East,98,1.0,9.0,59,0.00,,,0.00,,2013-01-30 11:33:00,
2013-01-30 02:42:00,-5.0,-16.0,-100.00,East,98,1.0,9.0,59,0.00,,,0.00,,2013-01-30 11:42:00,
2013-01-30 02:52:00,-5.0,-16.0,-100.00,East,98,1.0,9.0,59,0.00,,,0.00,,2013-01-30 11:52:00,
2013-01-30 03:00:00,-3.0,-11.0,-100.00,ENE,68,5.0,8.0,66,0.00,,,0.00,,2013-01-30 12:00:00,
2013-01-30 03:33:00,-3.0,-11.0,-100.00,ENE,68,5.0,8.0,66,0.00,,,0.00,,2013-01-30 12:33:00,
2013-01-30 03:43:00,-3.0,-11.0,-100.00,ENE,68,5.0,8.0,66,0.00,,,0.00,,2013-01-30 12:43:00,
2013-01-30 04:00:00,-2.0,-10.0,-100.00,ENE,59,6.0,12.0,69,0.00,,,0.00,,2013-01-30 13:00:00,
2013-01-30 04:33:00,-2.0,-10.0,-100.00,ENE,59,6.0,12.0,69,0.00,,,0.00,,2013-01-30 13:33:00,
2013-01-30 04:43:00,-2.0,-10.0,-100.00,ENE,59,6.0,12.0,69,0.00,,,0.00,,2013-01-30 13:43:00,
2013-01-30 04:53:00,-2.0,-10.0,-100.00,ENE,59,6.0,12.0,69,0.00,,,0.00,,2013-01-30 13:53:00,
2013-01-30 05:00:00,0.0,-7.0,-100.00,ENE,63,8.0,15.0,71,0.00,,,0.00,,2013-01-30 14:00:00,
2013-01-30 05:33:00,0.0,-7.0,-100.00,ENE,63,8.0,15.0,71,0.00,,,0.00,,2013-01-30 14:33:00,
2013-01-30 05:43:00,0.0,-7.0,-100.00,ENE,63,8.0,15.0,71,0.00,,,0.00,,2013-01-30 14:43:00,
2013-01-30 05:53:00,0.0,-7.0,-100.00,ENE,63,8.0,15.0,71,0.00,,,0.00,,2013-01-30 14:53:00,
2013-01-30 06:00:00,2.0,-5.0,-100.00,ENE,63,5.0,12.0,72,0.00,,,0.00,,2013-01-30 15:00:00,
2013-01-30 06:33:00,2.0,-5.0,-100.00,ENE,63,5.0,12.0,72,0.00,,,0.00,,2013-01-30 15:33:00,
2013-01-30 07:00:00,3.0,-4.0,-100.00,NE,53,4.0,14.0,71,0.00,,,0.00,,2013-01-30 16:00:00,
2013-01-30 07:33:00,3.0,-4.0,-100.00,NE,53,4.0,14.0,71,0.00,,,0.00,,2013-01-30 16:33:00,
2013-01-30 07:42:00,3.0,-4.0,-100.00,NE,53,4.0,14.0,71,0.00,,,0.00,,2013-01-30 16:42:00,
2013-01-30 07:52:00,3.0,-4.0,-100.00,NE,53,4.0,14.0,71,0.00,,,0.00,,2013-01-30 16:52:00,
2013-01-30 08:00:00,6.0,-1.0,-100.00,ENE,63,7.0,15.0,71,0.00,,,0.00,,2013-01-30 17:00:00,
2013-01-30 08:33:00,6.0,-1.0,-100.00,ENE,63,7.0,15.0,71,0.00,,,0.00,,2013-01-30 17:33:00,
2013-01-30 08:43:00,6.0,-1.0,-100.00,ENE,63,7.0,15.0,71,0.00,,,0.00,,2013-01-30 17:43:00,
2013-01-30 08:53:00,6.0,-1.0,-100.00,ENE,63,7.0,15.0,71,0.00,,,0.00,,2013-01-30 17:53:00,
2013-01-30 09:00:00,7.0,0.0,-100.00,ENE,68,7.0,14.0,72,0.00,,,0.00,,2013-01-30 18:00:00,
2013-01-30 09:33:00,7.0,0.0,-100.00,ENE,68,7.0,14.0,72,0.00,,,0.00,,2013-01-30 18:33:00,
2013-01-30 09:43:00,7.0,0.0,-100.00,ENE,68,7.0,14.0,72,0.00,,,0.00,,2013-01-30 18:43:00,
2013-01-30 09:52:00,7.0,0.0,-100.00,ENE,68,7.0,14.0,72,0.00,,,0.00,,2013-01-30 18:52:00,
2013-01-30 10:33:00,9.0,2.0,-100.00,ENE,61,8.0,14.0,71,0.00,,,0.00,,2013-01-30 19:33:00,
2013-01-30 11:33:00,11.0,3.0,-100.00,ENE,62,9.0,15.0,69,0.00,,,0.00,,2013-01-30 20:33:00,
2013-01-30 12:32:00,13.0,4.0,-100.00,ENE,64,8.0,15.0,68,0.00,,,0.00,,2013-01-30 21:32:00,
2013-01-30 13:33:00,15.0,6.0,-100.00,NE,51,9.0,16.0,67,0.00,,,0.00,,2013-01-30 22:33:00,
2013-01-30 14:33:00,17.0,8.0,-100.00,NE,51,9.0,18.0,66,-99.99,,,0.00,,2013-01-30 23:33:00,
2013-01-30 15:32:00,17.0,8.0,-100.00,ENE,62,8.0,16.0,67,-99.99,,,0.00,,2013-01-31 00:32:00,
2013-01-30 16:32:00,19.0,10.0,-100.00,ENE,64,8.0,15.0,67,-99.99,,,0.00,,2013-01-31 01:32:00,
2013-01-30 17:32:00,19.0,11.0,-100.00,ENE,61,9.0,17.0,69,-99.99,,,0.00,,2013-01-31 02:32:00,
2013-01-30 17:42:00,19.0,11.0,-100.00,ENE,61,9.0,17.0,69,-99.99,,,0.00,,2013-01-31 02:42:00,
2013-01-30 17:52:00,19.0,11.0,-100.00,ENE,61,9.0,17.0,69,-99.99,,,0.00,,2013-01-31 02:52:00,
2013-01-30 18:32:00,19.0,14.0,-100.00,ENE,57,9.0,17.0,82,-99.99,,,0.00,,2013-01-31 03:32:00,
2013-01-30 18:42:00,19.0,14.0,-100.00,ENE,57,9.0,17.0,82,-99.99,,,0.00,,2013-01-31 03:42:00,
2013-01-30 18:52:00,19.0,14.0,-100.00,ENE,57,9.0,17.0,82,-99.99,,,0.00,,2013-01-31 03:52:00,
2013-01-30 19:32:00,20.0,17.0,-100.00,ENE,58,8.0,15.0,87,-99.99,,,0.00,,2013-01-31 04:32:00,
2013-01-30 20:00:00,21.0,18.0,-100.00,ENE,63,8.0,15.0,89,-99.99,,,0.00,,2013-01-31 05:00:00,
2013-01-30 20:42:00,21.0,18.0,-100.00,ENE,63,8.0,15.0,89,-99.99,,,0.00,,2013-01-31 05:42:00,
2013-01-30 20:52:00,21.0,18.0,-100.00,ENE,63,8.0,15.0,89,-99.99,,,0.00,,2013-01-31 05:52:00,